sensor_id;sensor_type;location;lat;lon;timestamp;P1;durP1;ratioP1;P2;durP2;ratioP2
8098;SDS011;4092;47.876;9.372;2024-02-15T00:00:39;2.23;;;1.23;;
8098;SDS011;4092;47.876;9.372;2024-02-15T00:03:08;4.53;;;1.80;;
8098;SDS011;4092;47.876;9.372;2024-02-15T00:05:38;4.00;;;1.83;;
8098;SDS011;4092;47.876;9.372;2024-02-15T00:08:05;4.57;;;1.97;;
8098;SDS011;4092;47.876;9.372;2024-02-15T00:10:36;5.63;;;3.30;;
8098;SDS011;4092;47.876;9.372;2024-02-15T00:13:03;3.10;;;1.50;;
8098;SDS011;4092;47.876;9.372;2024-02-15T00:15:31;6.60;;;2.90;;
8098;SDS011;4092;47.876;9.372;2024-02-15T00:17:58;5.17;;;1.60;;
8098;SDS011;4092;47.876;9.372;2024-02-15T00:20:25;1.50;;;1.33;;
8098;SDS011;4092;47.876;9.372;2024-02-15T00:22:52;3.23;;;1.30;;
8098;SDS011;4092;47.876;9.372;2024-02-15T00:25:21;4.17;;;1.50;;
8098;SDS011;4092;47.876;9.372;2024-02-15T00:27:49;5.00;;;1.30;;
8098;SDS011;4092;47.876;9.372;2024-02-15T00:30:16;1.77;;;1.53;;
8098;SDS011;4092;47.876;9.372;2024-02-15T00:32:43;6.20;;;1.63;;
8098;SDS011;4092;47.876;9.372;2024-02-15T00:35:11;2.93;;;2.03;;
8098;SDS011;4092;47.876;9.372;2024-02-15T00:37:40;3.90;;;1.40;;
8098;SDS011;4092;47.876;9.372;2024-02-15T00:40:07;2.70;;;1.60;;
8098;SDS011;4092;47.876;9.372;2024-02-15T00:42:35;1.83;;;1.63;;
8098;SDS011;4092;47.876;9.372;2024-02-15T00:45:04;2.23;;;1.33;;
8098;SDS011;4092;47.876;9.372;2024-02-15T00:47:34;2.60;;;1.37;;
8098;SDS011;4092;47.876;9.372;2024-02-15T00:50:01;1.27;;;1.00;;
8098;SDS011;4092;47.876;9.372;2024-02-15T00:52:28;2.30;;;1.47;;
8098;SDS011;4092;47.876;9.372;2024-02-15T00:54:55;3.90;;;1.50;;
8098;SDS011;4092;47.876;9.372;2024-02-15T00:57:22;3.03;;;1.67;;
8098;SDS011;4092;47.876;9.372;2024-02-15T00:59:49;2.27;;;1.50;;
8098;SDS011;4092;47.876;9.372;2024-02-15T01:02:18;4.70;;;1.60;;
8098;SDS011;4092;47.876;9.372;2024-02-15T01:04:45;1.40;;;1.10;;
8098;SDS011;4092;47.876;9.372;2024-02-15T01:07:12;2.60;;;1.70;;
8098;SDS011;4092;47.876;9.372;2024-02-15T01:09:39;12.33;;;1.80;;
8098;SDS011;4092;47.876;9.372;2024-02-15T01:12:06;1.60;;;1.50;;
8098;SDS011;4092;47.876;9.372;2024-02-15T01:14:35;3.30;;;1.80;;
8098;SDS011;4092;47.876;9.372;2024-02-15T01:17:02;1.40;;;1.20;;
8098;SDS011;4092;47.876;9.372;2024-02-15T01:19:30;1.63;;;1.30;;
8098;SDS011;4092;47.876;9.372;2024-02-15T01:21:57;1.77;;;1.40;;
8098;SDS011;4092;47.876;9.372;2024-02-15T01:24:24;1.90;;;1.30;;
8098;SDS011;4092;47.876;9.372;2024-02-15T01:26:52;2.23;;;1.53;;
8098;SDS011;4092;47.876;9.372;2024-02-15T01:29:19;3.93;;;1.63;;
8098;SDS011;4092;47.876;9.372;2024-02-15T01:31:46;2.40;;;1.60;;
8098;SDS011;4092;47.876;9.372;2024-02-15T01:34:13;2.30;;;1.30;;
8098;SDS011;4092;47.876;9.372;2024-02-15T01:36:42;1.67;;;1.50;;
8098;SDS011;4092;47.876;9.372;2024-02-15T01:39:09;5.50;;;1.33;;
8098;SDS011;4092;47.876;9.372;2024-02-15T01:41:36;2.40;;;1.40;;
8098;SDS011;4092;47.876;9.372;2024-02-15T01:44:03;1.90;;;1.57;;
8098;SDS011;4092;47.876;9.372;2024-02-15T01:46:32;4.13;;;1.93;;
8098;SDS011;4092;47.876;9.372;2024-02-15T01:48:59;2.17;;;1.77;;
8098;SDS011;4092;47.876;9.372;2024-02-15T01:51:26;1.70;;;1.20;;
8098;SDS011;4092;47.876;9.372;2024-02-15T01:53:55;2.33;;;1.50;;
8098;SDS011;4092;47.876;9.372;2024-02-15T01:56:22;1.33;;;1.23;;
8098;SDS011;4092;47.876;9.372;2024-02-15T01:58:50;4.50;;;1.53;;
8098;SDS011;4092;47.876;9.372;2024-02-15T02:01:18;2.33;;;1.80;;
8098;SDS011;4092;47.876;9.372;2024-02-15T02:03:47;1.80;;;1.20;;
8098;SDS011;4092;47.876;9.372;2024-02-15T02:06:15;2.80;;;1.60;;
8098;SDS011;4092;47.876;9.372;2024-02-15T02:08:42;3.90;;;1.90;;
8098;SDS011;4092;47.876;9.372;2024-02-15T02:11:11;1.63;;;1.53;;
8098;SDS011;4092;47.876;9.372;2024-02-15T02:13:38;4.00;;;1.70;;
8098;SDS011;4092;47.876;9.372;2024-02-15T02:16:06;7.10;;;1.63;;
8098;SDS011;4092;47.876;9.372;2024-02-15T02:18:51;1.80;;;1.70;;
8098;SDS011;4092;47.876;9.372;2024-02-15T02:21:19;2.50;;;1.53;;
8098;SDS011;4092;47.876;9.372;2024-02-15T02:23:46;1.53;;;1.43;;
8098;SDS011;4092;47.876;9.372;2024-02-15T02:26:18;2.23;;;1.33;;
8098;SDS011;4092;47.876;9.372;2024-02-15T02:28:46;1.40;;;1.20;;
8098;SDS011;4092;47.876;9.372;2024-02-15T02:31:13;3.87;;;1.40;;
8098;SDS011;4092;47.876;9.372;2024-02-15T02:33:40;2.03;;;1.20;;
8098;SDS011;4092;47.876;9.372;2024-02-15T02:36:08;2.27;;;1.90;;
8098;SDS011;4092;47.876;9.372;2024-02-15T02:38:37;2.27;;;1.70;;
8098;SDS011;4092;47.876;9.372;2024-02-15T02:41:05;2.40;;;1.63;;
8098;SDS011;4092;47.876;9.372;2024-02-15T02:43:33;2.33;;;2.13;;
8098;SDS011;4092;47.876;9.372;2024-02-15T02:46:00;4.00;;;1.63;;
8098;SDS011;4092;47.876;9.372;2024-02-15T02:48:29;2.43;;;1.63;;
8098;SDS011;4092;47.876;9.372;2024-02-15T02:50:56;2.00;;;1.60;;
8098;SDS011;4092;47.876;9.372;2024-02-15T02:53:23;2.97;;;2.00;;
8098;SDS011;4092;47.876;9.372;2024-02-15T02:55:51;2.70;;;1.87;;
8098;SDS011;4092;47.876;9.372;2024-02-15T02:58:18;2.60;;;1.77;;
8098;SDS011;4092;47.876;9.372;2024-02-15T03:00:47;2.43;;;2.00;;
8098;SDS011;4092;47.876;9.372;2024-02-15T03:03:14;2.67;;;2.00;;
8098;SDS011;4092;47.876;9.372;2024-02-15T03:05:41;1.93;;;1.47;;
8098;SDS011;4092;47.876;9.372;2024-02-15T03:08:09;2.33;;;1.70;;
8098;SDS011;4092;47.876;9.372;2024-02-15T03:10:37;7.23;;;1.50;;
8098;SDS011;4092;47.876;9.372;2024-02-15T03:13:05;1.70;;;1.33;;
8098;SDS011;4092;47.876;9.372;2024-02-15T03:15:34;2.60;;;2.00;;
8098;SDS011;4092;47.876;9.372;2024-02-15T03:18:02;2.43;;;2.03;;
8098;SDS011;4092;47.876;9.372;2024-02-15T03:20:32;2.00;;;1.43;;
8098;SDS011;4092;47.876;9.372;2024-02-15T03:23:00;1.80;;;1.50;;
8098;SDS011;4092;47.876;9.372;2024-02-15T03:25:27;2.80;;;1.60;;
8098;SDS011;4092;47.876;9.372;2024-02-15T03:27:55;3.43;;;2.37;;
8098;SDS011;4092;47.876;9.372;2024-02-15T03:30:24;2.10;;;1.60;;
8098;SDS011;4092;47.876;9.372;2024-02-15T03:32:54;1.67;;;1.27;;
8098;SDS011;4092;47.876;9.372;2024-02-15T03:35:24;2.03;;;1.83;;
8098;SDS011;4092;47.876;9.372;2024-02-15T03:37:52;6.20;;;2.10;;
8098;SDS011;4092;47.876;9.372;2024-02-15T03:40:21;2.60;;;1.80;;
8098;SDS011;4092;47.876;9.372;2024-02-15T03:42:52;2.77;;;1.70;;
8098;SDS011;4092;47.876;9.372;2024-02-15T03:45:19;4.50;;;1.60;;
8098;SDS011;4092;47.876;9.372;2024-02-15T03:47:50;3.03;;;2.20;;
8098;SDS011;4092;47.876;9.372;2024-02-15T03:50:17;3.73;;;1.80;;
8098;SDS011;4092;47.876;9.372;2024-02-15T03:52:48;2.70;;;1.83;;
8098;SDS011;4092;47.876;9.372;2024-02-15T03:55:15;3.70;;;2.07;;
8098;SDS011;4092;47.876;9.372;2024-02-15T03:57:42;2.80;;;1.77;;
8098;SDS011;4092;47.876;9.372;2024-02-15T04:00:11;2.63;;;2.10;;
8098;SDS011;4092;47.876;9.372;2024-02-15T04:02:39;2.43;;;2.00;;
8098;SDS011;4092;47.876;9.372;2024-02-15T04:05:07;3.77;;;1.53;;
8098;SDS011;4092;47.876;9.372;2024-02-15T04:07:36;11.20;;;2.70;;
8098;SDS011;4092;47.876;9.372;2024-02-15T04:10:06;2.10;;;1.80;;
8098;SDS011;4092;47.876;9.372;2024-02-15T04:12:34;3.30;;;1.70;;
8098;SDS011;4092;47.876;9.372;2024-02-15T04:15:01;3.07;;;1.97;;
8098;SDS011;4092;47.876;9.372;2024-02-15T04:17:36;2.20;;;1.70;;
8098;SDS011;4092;47.876;9.372;2024-02-15T04:20:04;2.30;;;1.80;;
8098;SDS011;4092;47.876;9.372;2024-02-15T04:22:32;2.23;;;2.03;;
8098;SDS011;4092;47.876;9.372;2024-02-15T04:25:01;5.23;;;2.07;;
8098;SDS011;4092;47.876;9.372;2024-02-15T04:27:30;3.47;;;2.03;;
8098;SDS011;4092;47.876;9.372;2024-02-15T04:29:57;3.07;;;1.87;;
8098;SDS011;4092;47.876;9.372;2024-02-15T04:32:24;3.63;;;2.20;;
8098;SDS011;4092;47.876;9.372;2024-02-15T04:34:51;1.63;;;1.30;;
8098;SDS011;4092;47.876;9.372;2024-02-15T04:37:18;1.80;;;1.40;;
8098;SDS011;4092;47.876;9.372;2024-02-15T04:39:45;3.33;;;2.03;;
8098;SDS011;4092;47.876;9.372;2024-02-15T04:42:13;2.87;;;1.70;;
8098;SDS011;4092;47.876;9.372;2024-02-15T04:44:43;2.03;;;1.40;;
8098;SDS011;4092;47.876;9.372;2024-02-15T04:47:10;2.77;;;2.07;;
8098;SDS011;4092;47.876;9.372;2024-02-15T04:49:37;2.43;;;1.67;;
8098;SDS011;4092;47.876;9.372;2024-02-15T04:52:05;2.40;;;1.77;;
8098;SDS011;4092;47.876;9.372;2024-02-15T04:54:32;1.63;;;1.53;;
8098;SDS011;4092;47.876;9.372;2024-02-15T04:56:59;2.50;;;1.50;;
8098;SDS011;4092;47.876;9.372;2024-02-15T04:59:26;3.17;;;1.97;;
8098;SDS011;4092;47.876;9.372;2024-02-15T05:01:55;2.20;;;1.57;;
8098;SDS011;4092;47.876;9.372;2024-02-15T05:04:24;1.87;;;1.50;;
8098;SDS011;4092;47.876;9.372;2024-02-15T05:06:51;3.00;;;1.63;;
8098;SDS011;4092;47.876;9.372;2024-02-15T05:09:19;1.90;;;1.40;;
8098;SDS011;4092;47.876;9.372;2024-02-15T05:11:47;2.90;;;1.97;;
8098;SDS011;4092;47.876;9.372;2024-02-15T05:14:15;5.37;;;2.23;;
8098;SDS011;4092;47.876;9.372;2024-02-15T05:16:44;3.00;;;1.47;;
8098;SDS011;4092;47.876;9.372;2024-02-15T05:19:14;1.97;;;1.50;;
8098;SDS011;4092;47.876;9.372;2024-02-15T05:21:42;2.93;;;2.07;;
8098;SDS011;4092;47.876;9.372;2024-02-15T05:24:10;2.50;;;1.70;;
8098;SDS011;4092;47.876;9.372;2024-02-15T05:26:39;2.77;;;1.47;;
8098;SDS011;4092;47.876;9.372;2024-02-15T05:29:07;2.80;;;1.73;;
8098;SDS011;4092;47.876;9.372;2024-02-15T05:31:35;1.70;;;1.43;;
8098;SDS011;4092;47.876;9.372;2024-02-15T05:34:04;1.87;;;1.70;;
8098;SDS011;4092;47.876;9.372;2024-02-15T05:36:38;3.27;;;1.60;;
8098;SDS011;4092;47.876;9.372;2024-02-15T05:39:05;2.37;;;1.80;;
8098;SDS011;4092;47.876;9.372;2024-02-15T05:41:32;2.13;;;1.93;;
8098;SDS011;4092;47.876;9.372;2024-02-15T05:43:59;1.87;;;1.67;;
8098;SDS011;4092;47.876;9.372;2024-02-15T05:46:26;1.70;;;1.60;;
8098;SDS011;4092;47.876;9.372;2024-02-15T05:48:54;4.80;;;1.90;;
8098;SDS011;4092;47.876;9.372;2024-02-15T05:51:21;6.23;;;2.03;;
8098;SDS011;4092;47.876;9.372;2024-02-15T05:53:50;4.53;;;2.30;;
8098;SDS011;4092;47.876;9.372;2024-02-15T05:56:20;1.93;;;1.67;;
8098;SDS011;4092;47.876;9.372;2024-02-15T05:58:47;2.37;;;1.50;;
8098;SDS011;4092;47.876;9.372;2024-02-15T06:01:14;3.63;;;2.13;;
8098;SDS011;4092;47.876;9.372;2024-02-15T06:03:41;2.40;;;1.77;;
8098;SDS011;4092;47.876;9.372;2024-02-15T06:06:09;4.80;;;1.63;;
8098;SDS011;4092;47.876;9.372;2024-02-15T06:08:37;2.57;;;1.70;;
8098;SDS011;4092;47.876;9.372;2024-02-15T06:11:06;3.20;;;2.00;;
8098;SDS011;4092;47.876;9.372;2024-02-15T06:13:34;2.30;;;1.93;;
8098;SDS011;4092;47.876;9.372;2024-02-15T06:16:01;2.10;;;1.73;;
8098;SDS011;4092;47.876;9.372;2024-02-15T06:18:35;1.60;;;1.43;;
8098;SDS011;4092;47.876;9.372;2024-02-15T06:21:02;2.43;;;2.13;;
8098;SDS011;4092;47.876;9.372;2024-02-15T06:23:30;3.63;;;1.90;;
8098;SDS011;4092;47.876;9.372;2024-02-15T06:25:58;2.00;;;1.63;;
8098;SDS011;4092;47.876;9.372;2024-02-15T06:28:29;4.50;;;1.73;;
8098;SDS011;4092;47.876;9.372;2024-02-15T06:31:13;3.27;;;1.50;;
8098;SDS011;4092;47.876;9.372;2024-02-15T06:33:58;3.07;;;1.33;;
8098;SDS011;4092;47.876;9.372;2024-02-15T06:36:45;2.63;;;1.40;;
8098;SDS011;4092;47.876;9.372;2024-02-15T06:39:30;2.73;;;1.90;;
8098;SDS011;4092;47.876;9.372;2024-02-15T06:42:14;2.27;;;1.90;;
8098;SDS011;4092;47.876;9.372;2024-02-15T06:44:44;3.07;;;2.40;;
8098;SDS011;4092;47.876;9.372;2024-02-15T06:47:12;5.63;;;1.93;;
8098;SDS011;4092;47.876;9.372;2024-02-15T06:49:43;2.80;;;1.60;;
8098;SDS011;4092;47.876;9.372;2024-02-15T06:52:14;2.63;;;2.13;;
8098;SDS011;4092;47.876;9.372;2024-02-15T06:54:42;1.60;;;1.50;;
8098;SDS011;4092;47.876;9.372;2024-02-15T06:57:08;3.03;;;2.50;;
8098;SDS011;4092;47.876;9.372;2024-02-15T06:59:36;3.80;;;2.00;;
8098;SDS011;4092;47.876;9.372;2024-02-15T07:02:06;2.60;;;1.90;;
8098;SDS011;4092;47.876;9.372;2024-02-15T07:04:33;1.80;;;1.60;;
8098;SDS011;4092;47.876;9.372;2024-02-15T07:07:00;3.00;;;2.13;;
8098;SDS011;4092;47.876;9.372;2024-02-15T07:09:28;2.33;;;1.50;;
8098;SDS011;4092;47.876;9.372;2024-02-15T07:11:56;2.67;;;2.00;;
8098;SDS011;4092;47.876;9.372;2024-02-15T07:14:24;2.30;;;1.60;;
8098;SDS011;4092;47.876;9.372;2024-02-15T07:16:53;2.47;;;2.10;;
8098;SDS011;4092;47.876;9.372;2024-02-15T07:19:23;3.73;;;2.00;;
8098;SDS011;4092;47.876;9.372;2024-02-15T07:21:52;2.53;;;2.00;;
8098;SDS011;4092;47.876;9.372;2024-02-15T07:24:20;4.80;;;1.83;;
8098;SDS011;4092;47.876;9.372;2024-02-15T07:26:47;4.20;;;2.63;;
8098;SDS011;4092;47.876;9.372;2024-02-15T07:29:19;3.20;;;1.90;;
8098;SDS011;4092;47.876;9.372;2024-02-15T07:31:46;11.60;;;2.67;;
8098;SDS011;4092;47.876;9.372;2024-02-15T07:34:13;3.40;;;2.07;;
8098;SDS011;4092;47.876;9.372;2024-02-15T07:36:42;2.40;;;1.70;;
8098;SDS011;4092;47.876;9.372;2024-02-15T07:39:10;3.03;;;2.20;;
8098;SDS011;4092;47.876;9.372;2024-02-15T07:41:48;3.87;;;2.37;;
8098;SDS011;4092;47.876;9.372;2024-02-15T07:44:15;6.60;;;2.53;;
8098;SDS011;4092;47.876;9.372;2024-02-15T07:46:42;3.70;;;2.30;;
8098;SDS011;4092;47.876;9.372;2024-02-15T07:49:09;3.10;;;1.87;;
8098;SDS011;4092;47.876;9.372;2024-02-15T07:51:36;2.70;;;1.77;;
8098;SDS011;4092;47.876;9.372;2024-02-15T07:54:05;4.60;;;2.43;;
8098;SDS011;4092;47.876;9.372;2024-02-15T07:56:32;3.17;;;1.80;;
8098;SDS011;4092;47.876;9.372;2024-02-15T07:59:00;3.67;;;2.27;;
8098;SDS011;4092;47.876;9.372;2024-02-15T08:01:27;4.70;;;2.77;;
8098;SDS011;4092;47.876;9.372;2024-02-15T08:03:55;5.50;;;3.17;;
8098;SDS011;4092;47.876;9.372;2024-02-15T08:06:22;3.00;;;2.07;;
8098;SDS011;4092;47.876;9.372;2024-02-15T08:08:53;4.00;;;2.10;;
8098;SDS011;4092;47.876;9.372;2024-02-15T08:11:21;4.33;;;2.73;;
8098;SDS011;4092;47.876;9.372;2024-02-15T08:13:49;5.00;;;2.60;;
8098;SDS011;4092;47.876;9.372;2024-02-15T08:16:20;4.20;;;2.07;;
8098;SDS011;4092;47.876;9.372;2024-02-15T08:18:48;3.50;;;2.47;;
8098;SDS011;4092;47.876;9.372;2024-02-15T08:21:18;4.13;;;2.57;;
8098;SDS011;4092;47.876;9.372;2024-02-15T08:23:50;3.83;;;2.53;;
8098;SDS011;4092;47.876;9.372;2024-02-15T08:26:17;23.70;;;9.00;;
8098;SDS011;4092;47.876;9.372;2024-02-15T08:28:46;25.63;;;14.53;;
8098;SDS011;4092;47.876;9.372;2024-02-15T08:31:13;15.80;;;7.33;;
8098;SDS011;4092;47.876;9.372;2024-02-15T08:33:40;5.60;;;3.47;;
8098;SDS011;4092;47.876;9.372;2024-02-15T08:36:08;5.40;;;2.77;;
8098;SDS011;4092;47.876;9.372;2024-02-15T08:38:35;5.47;;;3.33;;
8098;SDS011;4092;47.876;9.372;2024-02-15T08:41:03;5.50;;;3.20;;
8098;SDS011;4092;47.876;9.372;2024-02-15T08:43:33;5.20;;;2.50;;
8098;SDS011;4092;47.876;9.372;2024-02-15T08:46:01;9.63;;;5.03;;
8098;SDS011;4092;47.876;9.372;2024-02-15T08:48:29;3.90;;;2.80;;
8098;SDS011;4092;47.876;9.372;2024-02-15T08:50:57;5.00;;;2.60;;
8098;SDS011;4092;47.876;9.372;2024-02-15T08:53:24;4.70;;;2.70;;
8098;SDS011;4092;47.876;9.372;2024-02-15T08:55:52;3.87;;;2.90;;
8098;SDS011;4092;47.876;9.372;2024-02-15T08:58:19;13.80;;;7.00;;
8098;SDS011;4092;47.876;9.372;2024-02-15T09:00:47;18.33;;;8.20;;
8098;SDS011;4092;47.876;9.372;2024-02-15T09:03:15;11.53;;;6.60;;
8098;SDS011;4092;47.876;9.372;2024-02-15T09:05:43;10.57;;;6.00;;
8098;SDS011;4092;47.876;9.372;2024-02-15T09:08:10;7.90;;;4.93;;
8098;SDS011;4092;47.876;9.372;2024-02-15T09:10:37;5.00;;;2.77;;
8098;SDS011;4092;47.876;9.372;2024-02-15T09:13:04;16.73;;;6.20;;
8098;SDS011;4092;47.876;9.372;2024-02-15T09:15:32;11.57;;;5.80;;
8098;SDS011;4092;47.876;9.372;2024-02-15T09:18:00;7.37;;;4.87;;
8098;SDS011;4092;47.876;9.372;2024-02-15T09:20:31;10.47;;;5.43;;
8098;SDS011;4092;47.876;9.372;2024-02-15T09:22:58;5.27;;;3.03;;
8098;SDS011;4092;47.876;9.372;2024-02-15T09:25:29;4.90;;;2.53;;
8098;SDS011;4092;47.876;9.372;2024-02-15T09:27:57;2.77;;;2.00;;
8098;SDS011;4092;47.876;9.372;2024-02-15T09:30:24;3.00;;;2.67;;
8098;SDS011;4092;47.876;9.372;2024-02-15T09:32:53;1.60;;;1.50;;
8098;SDS011;4092;47.876;9.372;2024-02-15T09:35:20;1.80;;;1.70;;
8098;SDS011;4092;47.876;9.372;2024-02-15T09:37:48;2.80;;;1.90;;
8098;SDS011;4092;47.876;9.372;2024-02-15T09:40:16;7.80;;;4.80;;
8098;SDS011;4092;47.876;9.372;2024-02-15T09:42:44;4.27;;;2.20;;
8098;SDS011;4092;47.876;9.372;2024-02-15T09:45:12;3.20;;;1.70;;
8098;SDS011;4092;47.876;9.372;2024-02-15T09:47:39;2.97;;;2.60;;
8098;SDS011;4092;47.876;9.372;2024-02-15T09:50:08;3.70;;;2.80;;
8098;SDS011;4092;47.876;9.372;2024-02-15T09:52:38;2.50;;;1.67;;
8098;SDS011;4092;47.876;9.372;2024-02-15T09:55:08;2.97;;;1.80;;
8098;SDS011;4092;47.876;9.372;2024-02-15T09:57:38;3.43;;;1.67;;
8098;SDS011;4092;47.876;9.372;2024-02-15T10:00:05;2.37;;;2.17;;
8098;SDS011;4092;47.876;9.372;2024-02-15T10:02:34;3.30;;;1.40;;
8098;SDS011;4092;47.876;9.372;2024-02-15T10:05:03;9.13;;;3.00;;
8098;SDS011;4092;47.876;9.372;2024-02-15T10:07:30;2.23;;;1.40;;
8098;SDS011;4092;47.876;9.372;2024-02-15T10:09:57;3.70;;;1.40;;
8098;SDS011;4092;47.876;9.372;2024-02-15T10:12:44;3.67;;;1.47;;
8098;SDS011;4092;47.876;9.372;2024-02-15T10:15:26;2.47;;;1.87;;
8098;SDS011;4092;47.876;9.372;2024-02-15T10:17:55;1.93;;;1.40;;
8098;SDS011;4092;47.876;9.372;2024-02-15T10:20:23;2.60;;;1.57;;
8098;SDS011;4092;47.876;9.372;2024-02-15T10:22:52;4.60;;;2.00;;
8098;SDS011;4092;47.876;9.372;2024-02-15T10:25:22;2.70;;;1.73;;
8098;SDS011;4092;47.876;9.372;2024-02-15T10:27:49;3.40;;;2.07;;
8098;SDS011;4092;47.876;9.372;2024-02-15T10:30:16;2.80;;;1.37;;
8098;SDS011;4092;47.876;9.372;2024-02-15T10:32:45;3.37;;;1.60;;
8098;SDS011;4092;47.876;9.372;2024-02-15T10:35:19;2.00;;;1.30;;
8098;SDS011;4092;47.876;9.372;2024-02-15T10:37:47;2.07;;;1.90;;
8098;SDS011;4092;47.876;9.372;2024-02-15T10:40:18;1.53;;;1.30;;
8098;SDS011;4092;47.876;9.372;2024-02-15T10:42:47;2.90;;;1.77;;
8098;SDS011;4092;47.876;9.372;2024-02-15T10:45:15;4.03;;;3.13;;
8098;SDS011;4092;47.876;9.372;2024-02-15T10:47:44;1.80;;;1.33;;
8098;SDS011;4092;47.876;9.372;2024-02-15T10:50:12;1.80;;;1.70;;
8098;SDS011;4092;47.876;9.372;2024-02-15T10:52:43;2.00;;;1.43;;
8098;SDS011;4092;47.876;9.372;2024-02-15T10:55:14;2.60;;;1.47;;
8098;SDS011;4092;47.876;9.372;2024-02-15T10:57:52;2.70;;;1.80;;
8098;SDS011;4092;47.876;9.372;2024-02-15T11:00:24;5.10;;;1.30;;
8098;SDS011;4092;47.876;9.372;2024-02-15T11:02:59;1.50;;;1.13;;
8098;SDS011;4092;47.876;9.372;2024-02-15T11:05:31;2.30;;;1.40;;
8098;SDS011;4092;47.876;9.372;2024-02-15T11:08:00;3.13;;;1.50;;
8098;SDS011;4092;47.876;9.372;2024-02-15T11:10:29;2.90;;;1.80;;
8098;SDS011;4092;47.876;9.372;2024-02-15T11:12:58;1.47;;;1.10;;
8098;SDS011;4092;47.876;9.372;2024-02-15T11:15:41;1.93;;;1.43;;
8098;SDS011;4092;47.876;9.372;2024-02-15T11:21:09;2.93;;;1.60;;
8098;SDS011;4092;47.876;9.372;2024-02-15T11:23:36;2.63;;;1.50;;
8098;SDS011;4092;47.876;9.372;2024-02-15T11:26:04;4.47;;;1.80;;
8098;SDS011;4092;47.876;9.372;2024-02-15T11:28:39;4.73;;;1.37;;
8098;SDS011;4092;47.876;9.372;2024-02-15T11:31:08;1.93;;;1.63;;
8098;SDS011;4092;47.876;9.372;2024-02-15T11:33:38;2.93;;;2.63;;
8098;SDS011;4092;47.876;9.372;2024-02-15T11:36:05;2.00;;;1.40;;
8098;SDS011;4092;47.876;9.372;2024-02-15T11:38:33;1.60;;;1.00;;
8098;SDS011;4092;47.876;9.372;2024-02-15T11:41:03;1.67;;;1.03;;
8098;SDS011;4092;47.876;9.372;2024-02-15T11:43:51;2.20;;;1.20;;
8098;SDS011;4092;47.876;9.372;2024-02-15T11:46:26;3.50;;;1.40;;
8098;SDS011;4092;47.876;9.372;2024-02-15T11:48:57;2.20;;;1.53;;
8098;SDS011;4092;47.876;9.372;2024-02-15T11:51:25;2.93;;;1.90;;
8098;SDS011;4092;47.876;9.372;2024-02-15T11:54:02;1.93;;;1.57;;
8098;SDS011;4092;47.876;9.372;2024-02-15T11:59:20;1.63;;;1.30;;
8098;SDS011;4092;47.876;9.372;2024-02-15T12:01:57;1.10;;;0.93;;
8098;SDS011;4092;47.876;9.372;2024-02-15T12:04:42;2.50;;;1.57;;
8098;SDS011;4092;47.876;9.372;2024-02-15T12:07:27;1.40;;;0.97;;
8098;SDS011;4092;47.876;9.372;2024-02-15T12:10:15;4.57;;;1.33;;
8098;SDS011;4092;47.876;9.372;2024-02-15T12:13:00;1.53;;;1.00;;
8098;SDS011;4092;47.876;9.372;2024-02-15T12:15:57;1.37;;;1.00;;
8098;SDS011;4092;47.876;9.372;2024-02-15T12:18:42;1.77;;;1.10;;
8098;SDS011;4092;47.876;9.372;2024-02-15T12:21:10;1.20;;;1.03;;
8098;SDS011;4092;47.876;9.372;2024-02-15T12:23:41;1.10;;;0.83;;
8098;SDS011;4092;47.876;9.372;2024-02-15T12:26:08;1.33;;;0.90;;
8098;SDS011;4092;47.876;9.372;2024-02-15T12:28:39;1.47;;;1.00;;
8098;SDS011;4092;47.876;9.372;2024-02-15T12:31:09;4.30;;;1.00;;
8098;SDS011;4092;47.876;9.372;2024-02-15T12:33:38;1.77;;;0.80;;
8098;SDS011;4092;47.876;9.372;2024-02-15T12:36:05;6.23;;;1.13;;
8098;SDS011;4092;47.876;9.372;2024-02-15T12:38:33;2.57;;;1.67;;
8098;SDS011;4092;47.876;9.372;2024-02-15T12:41:03;2.10;;;0.90;;
8098;SDS011;4092;47.876;9.372;2024-02-15T12:43:30;2.53;;;1.30;;
8098;SDS011;4092;47.876;9.372;2024-02-15T12:45:58;2.40;;;1.13;;
8098;SDS011;4092;47.876;9.372;2024-02-15T12:48:26;1.77;;;1.20;;
8098;SDS011;4092;47.876;9.372;2024-02-15T12:50:53;2.17;;;1.30;;
8098;SDS011;4092;47.876;9.372;2024-02-15T12:53:21;1.83;;;1.43;;
8098;SDS011;4092;47.876;9.372;2024-02-15T12:55:54;2.90;;;1.50;;
8098;SDS011;4092;47.876;9.372;2024-02-15T12:58:22;2.40;;;1.00;;
8098;SDS011;4092;47.876;9.372;2024-02-15T13:00:54;3.80;;;1.60;;
8098;SDS011;4092;47.876;9.372;2024-02-15T13:03:23;1.50;;;0.87;;
8098;SDS011;4092;47.876;9.372;2024-02-15T13:05:52;5.87;;;1.30;;
8098;SDS011;4092;47.876;9.372;2024-02-15T13:08:19;1.70;;;1.13;;
8098;SDS011;4092;47.876;9.372;2024-02-15T13:10:46;2.50;;;1.57;;
8098;SDS011;4092;47.876;9.372;2024-02-15T13:13:13;2.90;;;1.00;;
8098;SDS011;4092;47.876;9.372;2024-02-15T13:15:41;1.40;;;1.20;;
8098;SDS011;4092;47.876;9.372;2024-02-15T13:18:09;1.27;;;0.90;;
8098;SDS011;4092;47.876;9.372;2024-02-15T13:20:37;1.40;;;1.00;;
8098;SDS011;4092;47.876;9.372;2024-02-15T13:23:05;1.40;;;1.00;;
8098;SDS011;4092;47.876;9.372;2024-02-15T13:25:40;1.77;;;1.00;;
8098;SDS011;4092;47.876;9.372;2024-02-15T13:28:08;4.70;;;1.47;;
8098;SDS011;4092;47.876;9.372;2024-02-15T13:30:35;2.20;;;1.10;;
8098;SDS011;4092;47.876;9.372;2024-02-15T13:33:03;1.87;;;0.97;;
8098;SDS011;4092;47.876;9.372;2024-02-15T13:35:31;1.30;;;0.83;;
8098;SDS011;4092;47.876;9.372;2024-02-15T13:37:59;2.07;;;1.87;;
8098;SDS011;4092;47.876;9.372;2024-02-15T13:40:27;1.50;;;0.80;;
8098;SDS011;4092;47.876;9.372;2024-02-15T13:42:57;1.20;;;0.90;;
8098;SDS011;4092;47.876;9.372;2024-02-15T13:45:29;2.70;;;1.27;;
8098;SDS011;4092;47.876;9.372;2024-02-15T13:47:58;1.77;;;1.00;;
8098;SDS011;4092;47.876;9.372;2024-02-15T13:50:28;3.10;;;1.00;;
8098;SDS011;4092;47.876;9.372;2024-02-15T13:53:00;1.80;;;1.10;;
8098;SDS011;4092;47.876;9.372;2024-02-15T13:55:28;1.30;;;1.00;;
8098;SDS011;4092;47.876;9.372;2024-02-15T13:57:55;1.93;;;1.10;;
8098;SDS011;4092;47.876;9.372;2024-02-15T14:00:23;2.87;;;1.50;;
8098;SDS011;4092;47.876;9.372;2024-02-15T14:02:55;9.00;;;1.50;;
8098;SDS011;4092;47.876;9.372;2024-02-15T14:05:24;2.37;;;1.53;;
8098;SDS011;4092;47.876;9.372;2024-02-15T14:07:54;1.73;;;1.00;;
8098;SDS011;4092;47.876;9.372;2024-02-15T14:10:24;1.27;;;1.00;;
8098;SDS011;4092;47.876;9.372;2024-02-15T14:12:53;2.80;;;2.23;;
8098;SDS011;4092;47.876;9.372;2024-02-15T14:15:23;1.97;;;1.33;;
8098;SDS011;4092;47.876;9.372;2024-02-15T14:17:51;1.50;;;0.87;;
8098;SDS011;4092;47.876;9.372;2024-02-15T14:20:18;2.07;;;1.70;;
8098;SDS011;4092;47.876;9.372;2024-02-15T14:22:46;17.53;;;2.13;;
8098;SDS011;4092;47.876;9.372;2024-02-15T14:25:20;2.07;;;1.23;;
8098;SDS011;4092;47.876;9.372;2024-02-15T14:27:49;1.70;;;1.20;;
8098;SDS011;4092;47.876;9.372;2024-02-15T14:30:17;2.17;;;1.60;;
8098;SDS011;4092;47.876;9.372;2024-02-15T14:33:01;1.90;;;0.90;;
8098;SDS011;4092;47.876;9.372;2024-02-15T14:35:34;3.23;;;2.83;;
8098;SDS011;4092;47.876;9.372;2024-02-15T14:38:02;1.43;;;0.80;;
8098;SDS011;4092;47.876;9.372;2024-02-15T14:40:32;6.13;;;1.30;;
8098;SDS011;4092;47.876;9.372;2024-02-15T14:43:01;2.57;;;1.17;;
8098;SDS011;4092;47.876;9.372;2024-02-15T14:45:29;1.87;;;1.30;;
8098;SDS011;4092;47.876;9.372;2024-02-15T14:47:57;1.80;;;1.07;;
8098;SDS011;4092;47.876;9.372;2024-02-15T14:50:24;1.63;;;0.93;;
8098;SDS011;4092;47.876;9.372;2024-02-15T14:52:53;1.63;;;1.00;;
8098;SDS011;4092;47.876;9.372;2024-02-15T14:55:21;2.77;;;1.17;;
8098;SDS011;4092;47.876;9.372;2024-02-15T14:57:48;1.80;;;1.20;;
8098;SDS011;4092;47.876;9.372;2024-02-15T15:00:17;4.70;;;2.10;;
8098;SDS011;4092;47.876;9.372;2024-02-15T15:02:46;1.20;;;0.90;;
8098;SDS011;4092;47.876;9.372;2024-02-15T15:05:14;3.53;;;1.10;;
8098;SDS011;4092;47.876;9.372;2024-02-15T15:07:59;1.67;;;1.03;;
8098;SDS011;4092;47.876;9.372;2024-02-15T15:10:52;1.30;;;0.80;;
8098;SDS011;4092;47.876;9.372;2024-02-15T15:13:36;1.30;;;0.87;;
8098;SDS011;4092;47.876;9.372;2024-02-15T15:16:06;1.53;;;1.10;;
8098;SDS011;4092;47.876;9.372;2024-02-15T15:18:34;2.17;;;1.13;;
8098;SDS011;4092;47.876;9.372;2024-02-15T15:21:01;1.63;;;1.23;;
8098;SDS011;4092;47.876;9.372;2024-02-15T15:23:29;1.77;;;1.23;;
8098;SDS011;4092;47.876;9.372;2024-02-15T15:25:56;2.10;;;1.13;;
8098;SDS011;4092;47.876;9.372;2024-02-15T15:28:23;2.00;;;1.10;;
8098;SDS011;4092;47.876;9.372;2024-02-15T15:30:50;1.30;;;1.00;;
8098;SDS011;4092;47.876;9.372;2024-02-15T15:33:19;1.20;;;0.80;;